Time;durP1;ratioP1;P1;durP2;ratioP2;P2;SDS_P1;SDS_P2;PMS_P1;PMS_P2;Temp;Humidity;BMP_temperature;BMP_pressure;BME280_temperature;BME280_humidity;BME280_pressure;Samples;Min_cycle;Max_cycle;Signal;HPM_P1;HPM_P2
2021/08/11 00:00:27;;;;;;;10.83;6.20;;;20.30;85.30;;;;;;5075787;28;20497;-75
2021/08/11 00:02:53;;;;;;;9.70;6.17;;;20.30;85.20;;;;;;5075735;28;20449;-75
2021/08/11 00:05:20;;;;;;;9.03;6.57;;;20.30;85.20;;;;;;5075609;28;20441;-75
2021/08/11 00:07:47;;;;;;;10.30;6.77;;;20.30;85.40;;;;;;5075558;28;20472;-75
2021/08/11 00:10:14;;;;;;;8.03;5.40;;;20.20;85.20;;;;;;5075623;28;20447;-75
2021/08/11 00:12:40;;;;;;;10.50;7.10;;;20.20;84.80;;;;;;5075595;28;20898;-75
2021/08/11 00:15:10;;;;;;;6.30;5.70;;;20.20;84.30;;;;;;5075441;28;20467;-75
2021/08/11 00:17:36;;;;;;;8.00;5.57;;;20.10;83.70;;;;;;5075457;28;20444;-75
2021/08/11 00:20:05;;;;;;;6.87;5.10;;;20.10;83.40;;;;;;5075442;28;20496;-75
2021/08/11 00:22:32;;;;;;;5.47;5.07;;;20.10;83.10;;;;;;5075328;28;20464;-75
2021/08/11 00:24:59;;;;;;;5.60;5.10;;;20.00;82.80;;;;;;5075675;28;20467;-75
2021/08/11 00:27:25;;;;;;;8.10;5.73;;;20.00;82.70;;;;;;5075299;28;20469;-75
2021/08/11 00:29:52;;;;;;;6.50;5.30;;;20.00;82.70;;;;;;5074441;28;20483;-75
2021/08/11 00:32:20;;;;;;;10.43;5.80;;;19.90;82.80;;;;;;5074420;28;20880;-75
2021/08/11 00:34:47;;;;;;;6.40;5.30;;;19.90;82.80;;;;;;5075101;28;20444;-75
2021/08/11 00:37:14;;;;;;;6.30;5.80;;;19.80;82.70;;;;;;5075019;28;20464;-75
2021/08/11 00:39:43;;;;;;;6.87;5.73;;;19.80;82.80;;;;;;5075092;28;20809;-75
2021/08/11 00:42:09;;;;;;;7.13;5.47;;;19.80;82.80;;;;;;5074981;28;20531;-75
2021/08/11 00:44:36;;;;;;;6.77;5.30;;;19.80;82.80;;;;;;5074910;28;20820;-75
2021/08/11 00:47:05;;;;;;;6.43;5.70;;;19.80;82.70;;;;;;5074818;28;20472;-75
2021/08/11 00:49:33;;;;;;;8.33;5.30;;;19.80;82.70;;;;;;5074761;28;20476;-75
2021/08/11 00:52:00;;;;;;;10.90;5.70;;;19.70;82.80;;;;;;5074791;28;20440;-75
2021/08/11 00:54:28;;;;;;;6.60;6.00;;;19.70;82.80;;;;;;5074721;28;20451;-75
2021/08/11 00:56:56;;;;;;;10.77;6.33;;;19.70;82.80;;;;;;5074575;28;20491;-75
2021/08/11 00:59:27;;;;;;;10.10;5.67;;;19.70;83.00;;;;;;5074611;28;20449;-75
2021/08/11 01:01:54;;;;;;;8.67;5.70;;;19.60;83.20;;;;;;5074604;28;20443;-75
2021/08/11 01:04:21;;;;;;;6.77;5.53;;;19.60;83.00;;;;;;5074230;28;20927;-75
2021/08/11 01:06:50;;;;;;;5.70;5.03;;;19.60;82.70;;;;;;5074401;28;20465;-75
2021/08/11 01:09:18;;;;;;;8.43;5.83;;;19.60;82.70;;;;;;5074338;28;20587;-75
2021/08/11 01:11:46;;;;;;;10.23;5.47;;;19.60;82.70;;;;;;5074627;28;20448;-75
2021/08/11 01:14:14;;;;;;;5.50;5.00;;;19.60;82.80;;;;;;5074012;28;20809;-75
2021/08/11 01:16:41;;;;;;;7.50;5.50;;;19.50;82.70;;;;;;5074223;28;20469;-75
2021/08/11 01:19:08;;;;;;;12.03;6.20;;;19.50;82.90;;;;;;5074251;28;20440;-75
2021/08/11 01:21:42;;;;;;;5.83;5.30;;;19.50;83.00;;;;;;5074088;28;20448;-75
2021/08/11 01:24:16;;;;;;;7.70;5.83;;;19.40;83.00;;;;;;5074131;28;20903;-75
2021/08/11 01:27:19;;;;;;;14.90;5.90;;;19.40;83.20;;;;;;5074056;28;20483;-75
2021/08/11 01:30:12;;;;;;;9.20;6.17;;;19.40;83.40;;;;;;5074825;28;20464;-75
2021/08/11 01:33:15;;;;;;;6.83;6.13;;;19.40;83.50;;;;;;5074030;28;20436;-75
2021/08/11 01:35:52;;;;;;;8.10;4.90;;;19.30;83.50;;;;;;5073904;28;20464;-75
2021/08/11 01:38:22;;;;;;;10.70;5.30;;;19.30;83.60;;;;;;5073983;28;20429;-75
2021/08/11 01:40:55;;;;;;;6.40;5.07;;;19.30;83.70;;;;;;5073886;28;20447;-75
2021/08/11 01:43:25;;;;;;;9.50;5.57;;;19.30;83.80;;;;;;5073610;28;20432;-75
2021/08/11 01:45:53;;;;;;;6.60;5.73;;;19.30;83.90;;;;;;5073705;28;20468;-75
2021/08/11 01:48:27;;;;;;;6.97;6.37;;;19.30;84.10;;;;;;5073711;28;20841;-75
2021/08/11 01:50:56;;;;;;;6.20;5.30;;;19.30;84.20;;;;;;5073808;28;20452;-75
2021/08/11 01:53:26;;;;;;;7.53;5.47;;;19.30;84.20;;;;;;5073386;28;20954;-75
2021/08/11 01:55:56;;;;;;;11.87;5.70;;;19.30;84.20;;;;;;5073660;28;20468;-74
2021/08/11 01:58:23;;;;;;;6.00;5.30;;;19.30;84.40;;;;;;5073698;28;20440;-75
2021/08/11 02:00:51;;;;;;;6.77;5.63;;;19.20;84.40;;;;;;5073652;28;20448;-75
2021/08/11 02:03:20;;;;;;;6.63;4.93;;;19.20;84.40;;;;;;5073615;28;20445;-75
2021/08/11 02:05:47;;;;;;;8.87;6.13;;;19.20;84.50;;;;;;5073183;28;20893;-75
2021/08/11 02:08:16;;;;;;;9.40;5.27;;;19.20;84.60;;;;;;5073361;28;20440;-75
2021/08/11 02:10:43;;;;;;;7.07;4.90;;;19.10;84.60;;;;;;5073058;28;20782;-75
2021/08/11 02:13:10;;;;;;;9.67;5.77;;;19.10;84.70;;;;;;5073464;28;20536;-75
2021/08/11 02:15:37;;;;;;;8.43;5.67;;;19.20;85.00;;;;;;5073404;28;20835;-75
2021/08/11 02:18:05;;;;;;;7.03;5.00;;;19.10;84.90;;;;;;5073444;28;20451;-75
2021/08/11 02:20:31;;;;;;;7.00;6.23;;;19.10;84.90;;;;;;5073443;28;20444;-75
2021/08/11 02:22:58;;;;;;;9.23;5.17;;;19.10;84.90;;;;;;5073145;28;20460;-75
2021/08/11 02:25:26;;;;;;;13.07;5.40;;;19.10;85.00;;;;;;5073345;28;20464;-75
2021/08/11 02:28:03;;;;;;;6.80;5.83;;;19.00;84.90;;;;;;5073361;28;20445;-75
2021/08/11 02:30:39;;;;;;;10.53;5.77;;;19.10;85.00;;;;;;5072979;28;20468;-75
2021/08/11 02:33:10;;;;;;;9.70;5.50;;;19.10;84.70;;;;;;5073351;28;20436;-75
2021/08/11 02:35:41;;;;;;;6.57;5.77;;;19.00;84.20;;;;;;5073234;28;20500;-74
2021/08/11 02:38:12;;;;;;;7.30;5.50;;;19.00;84.20;;;;;;5073570;28;20428;-74
2021/08/11 02:40:45;;;;;;;9.10;5.87;;;19.00;84.10;;;;;;5073273;28;20496;-74
2021/08/11 02:43:21;;;;;;;5.80;5.20;;;18.90;83.90;;;;;;5073452;28;20482;-74
2021/08/11 02:45:53;;;;;;;7.43;5.23;;;18.90;83.80;;;;;;5073106;28;20472;-74
2021/08/11 02:48:21;;;;;;;9.30;6.20;;;18.90;83.90;;;;;;5073122;28;20500;-74
2021/08/11 02:50:50;;;;;;;7.37;4.63;;;18.90;83.90;;;;;;5073130;28;20448;-74
2021/08/11 02:53:20;;;;;;;13.07;6.70;;;18.80;83.70;;;;;;5073085;28;20449;-74
2021/08/11 02:55:48;;;;;;;11.37;5.53;;;18.80;83.70;;;;;;5078033;28;20858;-74
2021/08/11 02:58:17;;;;;;;9.30;5.50;;;18.80;83.70;;;;;;5076876;28;20447;-74
2021/08/11 03:00:44;;;;;;;5.83;4.77;;;18.80;83.70;;;;;;5076912;28;20486;-74
2021/08/11 03:03:11;;;;;;;10.43;5.87;;;18.80;83.60;;;;;;5076844;28;20440;-74
2021/08/11 03:05:38;;;;;;;7.87;5.90;;;18.70;83.50;;;;;;5076721;28;20469;-74
2021/08/11 03:08:06;;;;;;;7.60;5.13;;;18.70;83.50;;;;;;5076451;28;20444;-74
2021/08/11 03:10:33;;;;;;;8.80;5.70;;;18.70;83.50;;;;;;5076613;28;20480;-74
2021/08/11 03:13:01;;;;;;;10.77;6.53;;;18.60;83.50;;;;;;5076689;28;20447;-74
2021/08/11 03:15:30;;;;;;;8.90;5.40;;;18.60;83.60;;;;;;5076230;28;20460;-74
2021/08/11 03:17:56;;;;;;;9.00;5.13;;;18.60;83.50;;;;;;5076632;28;20429;-74
2021/08/11 03:20:23;;;;;;;5.73;5.03;;;18.60;83.50;;;;;;5076210;28;20811;-74
2021/08/11 03:22:50;;;;;;;8.23;5.13;;;18.60;83.50;;;;;;5076233;28;20464;-74
2021/08/11 03:25:17;;;;;;;8.43;6.10;;;18.60;83.40;;;;;;5076411;28;20444;-75
2021/08/11 03:27:44;;;;;;;7.30;5.10;;;18.50;83.30;;;;;;5076419;28;20448;-74
2021/08/11 03:30:13;;;;;;;5.63;5.10;;;18.50;83.40;;;;;;5076308;28;20843;-75
2021/08/11 03:32:40;;;;;;;9.67;5.80;;;18.50;83.50;;;;;;5076262;28;20467;-75
2021/08/11 03:35:07;;;;;;;11.97;6.00;;;18.50;83.50;;;;;;5076256;28;20445;-74
2021/08/11 03:37:34;;;;;;;9.50;6.27;;;18.50;83.70;;;;;;5076253;28;20445;-74
2021/08/11 03:40:00;;;;;;;5.97;5.37;;;18.50;83.70;;;;;;5076193;28;20441;-74
2021/08/11 03:42:27;;;;;;;7.27;5.97;;;18.40;83.50;;;;;;5076182;28;20444;-74
2021/08/11 03:44:54;;;;;;;9.70;5.10;;;18.40;83.30;;;;;;5076242;28;20455;-74
2021/08/11 03:47:22;;;;;;;7.50;4.90;;;18.40;83.20;;;;;;5075991;28;20594;-75
2021/08/11 03:49:50;;;;;;;6.40;5.20;;;18.40;83.20;;;;;;5075917;28;21002;-75
2021/08/11 03:52:17;;;;;;;5.47;4.87;;;18.30;83.10;;;;;;5075979;28;20475;-75
2021/08/11 03:54:44;;;;;;;8.63;5.63;;;18.30;83.20;;;;;;5075935;28;20441;-74
2021/08/11 03:57:10;;;;;;;8.55;5.65;;;18.30;83.20;;;;;;5075158;28;20424;-74
2021/08/11 03:59:37;;;;;;;5.47;4.40;;;18.30;83.10;;;;;;5075529;28;20691;-74
2021/08/11 04:02:05;;;;;;;6.03;5.40;;;18.30;82.90;;;;;;5075790;28;20444;-74
2021/08/11 04:04:33;;;;;;;5.47;4.70;;;18.20;82.90;;;;;;5075079;28;20934;-74
2021/08/11 04:07:00;;;;;;;8.90;3.87;;;18.20;82.80;;;;;;5075272;28;20927;-74
2021/08/11 04:09:27;;;;;;;5.30;4.67;;;18.20;82.90;;;;;;5075538;28;20487;-74
2021/08/11 04:11:54;;;;;;;5.97;4.10;;;18.10;82.80;;;;;;5075914;28;20449;-74
2021/08/11 04:14:20;;;;;;;7.10;4.83;;;18.10;82.80;;;;;;5075538;28;20444;-74
2021/08/11 04:16:47;;;;;;;8.47;4.27;;;18.10;82.80;;;;;;5075116;28;20993;-74
2021/08/11 04:19:14;;;;;;;10.63;4.27;;;18.10;83.00;;;;;;5076285;28;20464;-74
2021/08/11 04:21:42;;;;;;;6.20;4.57;;;18.10;83.00;;;;;;5075283;28;20455;-74
2021/08/11 04:24:08;;;;;;;5.87;3.80;;;18.00;82.90;;;;;;5075394;28;20433;-74
2021/08/11 04:26:35;;;;;;;4.03;3.50;;;18.10;83.10;;;;;;5075250;28;20487;-74
2021/08/11 04:29:02;;;;;;;4.80;4.40;;;18.00;83.10;;;;;;5075189;28;20452;-74
2021/08/11 04:31:28;;;;;;;7.90;4.23;;;18.00;83.20;;;;;;5075202;28;20452;-74
2021/08/11 04:33:55;;;;;;;5.50;3.70;;;18.00;83.30;;;;;;5074844;28;20444;-74
2021/08/11 04:36:22;;;;;;;7.43;4.60;;;18.00;83.40;;;;;;5075024;28;20460;-74
2021/08/11 04:38:50;;;;;;;8.10;5.10;;;18.00;83.60;;;;;;5075147;28;20436;-74
2021/08/11 04:41:17;;;;;;;5.53;5.03;;;18.00;84.00;;;;;;5074959;28;20444;-74
2021/08/11 04:43:44;;;;;;;5.37;4.87;;;18.00;84.20;;;;;;5074969;28;20509;-74
2021/08/11 04:46:10;;;;;;;5.13;4.63;;;18.00;84.70;;;;;;5074825;28;20469;-74
2021/08/11 04:48:37;;;;;;;5.73;4.63;;;18.00;85.00;;;;;;5074537;28;20958;-74
2021/08/11 04:51:05;;;;;;;7.50;5.00;;;18.10;85.20;;;;;;5074732;28;20849;-74
2021/08/11 04:53:31;;;;;;;7.83;4.30;;;18.00;85.10;;;;;;5074748;28;20445;-74
2021/08/11 04:55:59;;;;;;;6.10;4.90;;;18.00;85.10;;;;;;5074629;28;20476;-74
2021/08/11 04:58:26;;;;;;;4.97;4.50;;;18.10;85.20;;;;;;5074667;28;20444;-74
2021/08/11 05:00:53;;;;;;;5.77;4.40;;;18.10;85.40;;;;;;5074312;28;20919;-74
2021/08/11 05:03:19;;;;;;;7.03;4.40;;;18.10;85.40;;;;;;5074249;28;20928;-74
2021/08/11 05:05:46;;;;;;;6.80;4.60;;;18.10;85.40;;;;;;5074441;28;20484;-74
2021/08/11 05:08:13;;;;;;;6.63;5.00;;;18.10;85.40;;;;;;5074488;28;20436;-74
2021/08/11 05:10:40;;;;;;;4.90;4.50;;;18.10;85.40;;;;;;5074159;28;20838;-75
2021/08/11 05:13:08;;;;;;;7.83;4.57;;;18.20;85.60;;;;;;5074072;28;20951;-74
2021/08/11 05:15:35;;;;;;;5.40;4.60;;;18.20;85.60;;;;;;5074237;28;20468;-74
2021/08/11 05:18:01;;;;;;;6.30;4.77;;;18.20;85.90;;;;;;5073677;28;20490;-74
2021/08/11 05:20:29;;;;;;;4.90;4.20;;;18.30;86.10;;;;;;5073948;28;20442;-74
2021/08/11 05:22:55;;;;;;;5.60;4.50;;;18.30;86.20;;;;;;5073931;28;20460;-74
2021/08/11 05:25:22;;;;;;;5.17;4.77;;;18.30;86.40;;;;;;5074162;28;20445;-74
2021/08/11 05:27:49;;;;;;;5.77;5.20;;;18.40;86.70;;;;;;5074945;28;20441;-74
2021/08/11 05:30:17;;;;;;;5.33;4.87;;;18.50;86.90;;;;;;5073992;28;20484;-74
2021/08/11 05:32:44;;;;;;;5.77;5.27;;;18.50;87.30;;;;;;5074446;28;20436;-74
2021/08/11 05:35:11;;;;;;;6.13;4.90;;;18.60;87.60;;;;;;5073967;28;20440;-74
2021/08/11 05:37:38;;;;;;;5.83;5.33;;;18.60;87.90;;;;;;5073920;28;20472;-74
2021/08/11 05:40:05;;;;;;;5.73;5.23;;;18.70;88.30;;;;;;5074132;28;20440;-74
2021/08/11 05:42:32;;;;;;;6.60;5.40;;;18.80;88.60;;;;;;5073867;28;20445;-74
2021/08/11 05:44:59;;;;;;;5.93;5.43;;;18.90;89.10;;;;;;5074073;28;20452;-74
2021/08/11 05:47:27;;;;;;;5.50;5.00;;;19.00;89.60;;;;;;5073762;28;20460;-74
2021/08/11 05:49:54;;;;;;;6.20;5.60;;;19.10;89.80;;;;;;5073708;28;20483;-74
2021/08/11 05:52:20;;;;;;;6.87;6.17;;;19.20;90.00;;;;;;5073765;28;20468;-74
2021/08/11 05:54:49;;;;;;;10.30;6.13;;;19.30;89.90;;;;;;5073689;28;20459;-74
2021/08/11 05:57:16;;;;;;;6.30;5.67;;;19.40;89.70;;;;;;5073336;28;20989;-74
2021/08/11 05:59:43;;;;;;;6.80;6.10;;;19.40;89.40;;;;;;5073895;28;20451;-74
2021/08/11 06:02:10;;;;;;;8.00;5.83;;;19.50;89.50;;;;;;5073652;28;20441;-74
2021/08/11 06:04:38;;;;;;;7.17;6.50;;;19.50;89.50;;;;;;5073633;28;20448;-74
2021/08/11 06:07:05;;;;;;;10.33;6.70;;;19.60;89.80;;;;;;5073585;28;20468;-74
2021/08/11 06:09:31;;;;;;;6.93;6.33;;;19.50;90.00;;;;;;5073533;28;20452;-74
2021/08/11 06:11:58;;;;;;;7.07;6.57;;;19.60;90.10;;;;;;5073482;28;20448;-74
2021/08/11 06:14:25;;;;;;;8.13;6.83;;;19.50;90.10;;;;;;5073552;28;20449;-74
2021/08/11 06:16:52;;;;;;;8.10;6.33;;;19.60;90.20;;;;;;5073438;28;20839;-74
2021/08/11 06:19:18;;;;;;;8.67;7.60;;;19.60;90.20;;;;;;5073146;28;20440;-75
2021/08/11 06:21:46;;;;;;;8.30;7.50;;;19.60;90.30;;;;;;5073038;28;20444;-74
2021/08/11 06:24:13;;;;;;;9.43;7.23;;;19.60;90.50;;;;;;5073434;28;20794;-75
2021/08/11 06:26:40;;;;;;;10.63;8.10;;;19.70;90.60;;;;;;5073306;28;20468;-73
2021/08/11 06:29:08;;;;;;;13.73;8.23;;;19.70;90.50;;;;;;5076594;28;20527;-73
2021/08/11 06:31:34;;;;;;;8.17;6.20;;;19.70;90.60;;;;;;5077533;28;20480;-73
2021/08/11 06:34:01;;;;;;;13.23;8.07;;;19.70;90.60;;;;;;5077605;28;20456;-74
2021/08/11 06:36:28;;;;;;;10.03;8.40;;;19.80;90.60;;;;;;5077413;28;20464;-74
2021/08/11 06:38:56;;;;;;;12.07;6.60;;;19.80;90.70;;;;;;5077179;28;20947;-73
2021/08/11 06:41:23;;;;;;;8.87;6.63;;;19.90;90.70;;;;;;5077419;28;20452;-74
2021/08/11 06:43:49;;;;;;;8.57;4.70;;;20.00;90.70;;;;;;5077363;28;20448;-73
2021/08/11 06:46:16;;;;;;;8.03;7.23;;;20.10;90.30;;;;;;5077219;28;20467;-74
2021/08/11 06:48:43;;;;;;;6.43;5.20;;;20.20;89.60;;;;;;5077242;28;20816;-74
2021/08/11 06:51:10;;;;;;;5.43;4.10;;;20.30;89.60;;;;;;5077117;28;20471;-74
2021/08/11 06:53:37;;;;;;;7.10;5.17;;;20.40;88.80;;;;;;5076791;28;20495;-74
2021/08/11 06:56:06;;;;;;;5.73;4.87;;;20.50;88.30;;;;;;5076951;28;20824;-74
2021/08/11 06:58:34;;;;;;;9.57;7.63;;;20.60;87.90;;;;;;5076960;28;20467;-74
2021/08/11 07:01:01;;;;;;;15.20;7.17;;;20.70;87.20;;;;;;5076983;28;20444;-75
2021/08/11 07:03:28;;;;;;;5.93;5.00;;;20.90;87.20;;;;;;5076832;28;20445;-75
2021/08/11 07:05:55;;;;;;;8.17;5.37;;;21.00;86.60;;;;;;5076991;28;20474;-75
2021/08/11 07:08:22;;;;;;;6.60;5.70;;;21.10;85.70;;;;;;5076819;28;20451;-75
2021/08/11 07:10:49;;;;;;;7.43;4.93;;;21.20;85.30;;;;;;5076633;28;20527;-74
2021/08/11 07:13:17;;;;;;;9.07;6.07;;;21.30;84.90;;;;;;5076787;28;20452;-74
2021/08/11 07:15:44;;;;;;;6.47;5.63;;;21.30;84.60;;;;;;5076555;28;20460;-74
2021/08/11 07:18:16;;;;;;;6.43;5.93;;;21.40;84.50;;;;;;5076288;28;20957;-74
2021/08/11 07:20:43;;;;;;;6.77;4.83;;;21.50;84.00;;;;;;5076301;28;20978;-74
2021/08/11 07:23:10;;;;;;;5.30;4.80;;;21.60;84.50;;;;;;5076365;28;20861;-74
2021/08/11 07:25:37;;;;;;;6.20;5.60;;;21.70;83.90;;;;;;5075985;28;21001;-74
2021/08/11 07:28:04;;;;;;;6.63;6.03;;;21.90;83.60;;;;;;5076234;28;20531;-73
2021/08/11 07:30:32;;;;;;;5.20;4.23;;;22.10;83.60;;;;;;5076278;28;20487;-74
2021/08/11 07:32:59;;;;;;;5.70;5.07;;;22.20;82.70;;;;;;5076280;28;20444;-74
2021/08/11 07:35:26;;;;;;;7.20;5.33;;;22.40;81.50;;;;;;5075744;28;20472;-74
2021/08/11 07:37:55;;;;;;;10.27;5.60;;;22.50;80.40;;;;;;5076305;28;20486;-74
2021/08/11 07:40:23;;;;;;;4.17;3.70;;;22.70;79.50;;;;;;5075519;28;20806;-74
2021/08/11 07:42:50;;;;;;;12.33;6.30;;;22.90;78.90;;;;;;5076164;28;20844;-74
2021/08/11 07:45:19;;;;;;;9.83;6.57;;;23.10;78.60;;;;;;5076073;28;20449;-75
2021/08/11 07:47:48;;;;;;;8.60;5.53;;;23.30;77.90;;;;;;5075941;28;20547;-74
2021/08/11 07:50:17;;;;;;;7.40;5.80;;;23.60;76.90;;;;;;5075902;28;20481;-74
2021/08/11 07:52:44;;;;;;;5.17;4.60;;;23.80;76.00;;;;;;5075989;28;20440;-74
2021/08/11 07:55:12;;;;;;;5.03;4.50;;;24.10;74.30;;;;;;5076287;28;20452;-73
2021/08/11 07:57:39;;;;;;;9.30;6.10;;;24.30;72.10;;;;;;5075991;28;20455;-73
2021/08/11 08:00:07;;;;;;;6.23;4.50;;;24.50;70.80;;;;;;5075920;28;20449;-73
2021/08/11 08:02:34;;;;;;;6.20;5.20;;;24.70;70.60;;;;;;5076041;28;20447;-73
2021/08/11 08:05:02;;;;;;;11.77;4.90;;;24.90;69.80;;;;;;5075369;28;20445;-74
2021/08/11 08:07:29;;;;;;;6.50;5.90;;;25.10;69.00;;;;;;5075094;28;20472;-74
2021/08/11 08:09:56;;;;;;;5.27;4.80;;;25.30;66.80;;;;;;5075257;28;20934;-74
2021/08/11 08:12:23;;;;;;;7.53;5.60;;;25.30;65.40;;;;;;5075473;28;20480;-73
2021/08/11 08:14:49;;;;;;;6.20;5.10;;;25.40;66.00;;;;;;5075143;28;20444;-74
2021/08/11 08:17:16;;;;;;;5.97;5.37;;;25.50;65.10;;;;;;5075578;28;20468;-73
2021/08/11 08:19:43;;;;;;;4.90;4.50;;;25.60;64.50;;;;;;5075466;28;20452;-73
2021/08/11 08:22:11;;;;;;;4.27;3.83;;;25.80;65.80;;;;;;5074987;28;20942;-74
2021/08/11 08:24:38;;;;;;;6.73;5.10;;;26.10;65.50;;;;;;5075334;28;20444;-73
2021/08/11 08:27:05;;;;;;;4.33;3.90;;;26.30;63.90;;;;;;5075148;28;20465;-73
2021/08/11 08:29:32;;;;;;;4.63;3.87;;;26.60;62.20;;;;;;5076175;28;20452;-74
2021/08/11 08:31:58;;;;;;;6.00;3.83;;;26.80;60.60;;;;;;5074708;28;20844;-73
2021/08/11 08:34:25;;;;;;;5.17;4.67;;;27.00;60.10;;;;;;5075211;28;20852;-74
2021/08/11 08:36:52;;;;;;;6.97;5.93;;;27.00;59.40;;;;;;5075070;28;20475;-74
2021/08/11 08:39:20;;;;;;;7.70;4.77;;;27.00;59.20;;;;;;5075097;28;20447;-74
2021/08/11 08:41:47;;;;;;;5.87;3.90;;;26.90;59.80;;;;;;5075019;28;20491;-74
2021/08/11 08:44:14;;;;;;;6.23;5.13;;;26.80;60.00;;;;;;5075210;28;20455;-74
2021/08/11 08:46:42;;;;;;;4.07;3.70;;;26.70;59.80;;;;;;5074816;28;20456;-73
2021/08/11 08:49:10;;;;;;;6.60;3.57;;;26.50;59.90;;;;;;5075009;28;20440;-73
2021/08/11 08:51:43;;;;;;;4.63;3.87;;;26.50;60.10;;;;;;5073796;28;20487;-73
2021/08/11 08:54:11;;;;;;;4.03;3.20;;;26.50;60.30;;;;;;5074982;28;20499;-73
2021/08/11 08:56:39;;;;;;;4.17;3.63;;;26.70;59.70;;;;;;5074493;28;20471;-73
2021/08/11 08:59:06;;;;;;;5.47;3.87;;;26.90;58.90;;;;;;5074815;28;20445;-73
2021/08/11 09:01:34;;;;;;;4.90;2.93;;;27.00;58.50;;;;;;5074573;28;20470;-73
2021/08/11 09:04:00;;;;;;;7.67;4.10;;;27.10;57.60;;;;;;5074710;28;20445;-73
2021/08/11 09:06:32;;;;;;;4.27;3.87;;;27.20;57.80;;;;;;5074520;28;20472;-73
2021/08/11 09:09:04;;;;;;;4.03;3.07;;;27.30;57.50;;;;;;5074539;28;20436;-73
2021/08/11 09:11:31;;;;;;;4.50;2.97;;;27.40;57.20;;;;;;5074473;28;20552;-73
2021/08/11 09:14:20;;;;;;;4.63;3.10;;;27.50;57.00;;;;;;5074482;28;20449;-73
2021/08/11 09:16:48;;;;;;;4.37;3.10;;;27.60;56.90;;;;;;5074636;28;20499;-74
2021/08/11 09:19:15;;;;;;;4.87;3.93;;;27.70;57.00;;;;;;5074198;28;20448;-75
2021/08/11 09:21:56;;;;;;;6.83;4.03;;;28.00;57.10;;;;;;5074063;28;20441;-73
2021/08/11 09:24:22;;;;;;;3.10;2.80;;;28.10;56.50;;;;;;5074231;28;20440;-73
2021/08/11 09:26:49;;;;;;;6.93;3.57;;;28.30;56.00;;;;;;5074151;28;20472;-73
2021/08/11 09:29:18;;;;;;;3.57;3.27;;;28.40;55.60;;;;;;5074160;28;20449;-74
2021/08/11 09:31:45;;;;;;;5.60;3.73;;;28.50;54.70;;;;;;5074083;28;20579;-75
2021/08/11 09:34:12;;;;;;;5.00;3.60;;;28.50;54.30;;;;;;5074079;28;20796;-75
2021/08/11 09:36:44;;;;;;;4.23;3.83;;;28.50;54.30;;;;;;5073936;28;20469;-75
2021/08/11 09:39:10;;;;;;;6.83;3.87;;;28.50;54.00;;;;;;5074140;28;20426;-75
2021/08/11 09:41:58;;;;;;;8.47;3.00;;;28.30;54.90;;;;;;5074190;28;20441;-74
2021/08/11 09:44:26;;;;;;;8.10;4.33;;;28.00;55.80;;;;;;5073949;28;20456;-74
2021/08/11 09:46:53;;;;;;;3.90;3.60;;;28.00;56.20;;;;;;5073869;28;20465;-73
2021/08/11 09:49:24;;;;;;;4.33;3.27;;;28.00;56.50;;;;;;5073484;28;20931;-73
2021/08/11 09:51:58;;;;;;;6.30;3.70;;;27.90;56.40;;;;;;5073798;28;20546;-74
2021/08/11 09:54:27;;;;;;;5.60;4.03;;;28.10;56.50;;;;;;5073839;28;20448;-74
2021/08/11 09:56:54;;;;;;;7.20;4.17;;;28.10;56.90;;;;;;5073440;28;21005;-74
2021/08/11 09:59:20;;;;;;;4.10;3.70;;;28.20;56.30;;;;;;5073731;28;20444;-74
2021/08/11 10:01:49;;;;;;;3.83;3.50;;;28.20;56.20;;;;;;5073741;28;20448;-74
2021/08/11 10:04:15;;;;;;;4.97;4.30;;;28.30;54.20;;;;;;5073504;28;20459;-74
2021/08/11 10:06:44;;;;;;;3.27;3.03;;;28.30;54.20;;;;;;5073567;28;20472;-74
2021/08/11 10:09:16;;;;;;;6.13;3.37;;;28.40;54.30;;;;;;5073611;28;20448;-74
2021/08/11 10:11:47;;;;;;;6.40;3.63;;;28.60;53.20;;;;;;5073491;28;20846;-74
2021/08/11 10:14:15;;;;;;;6.70;4.37;;;28.80;54.20;;;;;;5073575;28;20523;-74
2021/08/11 10:16:42;;;;;;;7.03;5.00;;;29.10;53.30;;;;;;5073468;28;20817;-74
2021/08/11 10:19:11;;;;;;;4.00;3.63;;;29.40;54.20;;;;;;5073478;28;20444;-74
2021/08/11 10:21:44;;;;;;;6.67;4.10;;;29.90;51.70;;;;;;5073329;28;20463;-74
2021/08/11 10:24:12;;;;;;;3.83;3.53;;;30.40;52.20;;;;;;5073449;28;20425;-74
2021/08/11 10:26:39;;;;;;;4.30;3.87;;;30.80;51.20;;;;;;5073367;28;20471;-74
2021/08/11 10:29:07;;;;;;;7.67;3.23;;;31.20;49.50;;;;;;5073333;28;20440;-74
2021/08/11 10:31:34;;;;;;;5.50;4.10;;;31.70;48.10;;;;;;5073315;28;20564;-74
2021/08/11 10:34:01;;;;;;;5.67;3.87;;;32.10;46.30;;;;;;5073313;28;20447;-75
2021/08/11 10:36:31;;;;;;;9.80;5.70;;;32.60;43.30;;;;;;5073132;28;21027;-74
2021/08/11 10:38:59;;;;;;;3.73;3.07;;;32.90;42.90;;;;;;5073302;28;20444;-74
2021/08/11 10:41:28;;;;;;;4.70;3.40;;;33.10;43.50;;;;;;5073296;28;20444;-75
2021/08/11 10:43:55;;;;;;;3.60;3.30;;;33.30;41.20;;;;;;5073238;28;20439;-74
2021/08/11 10:46:24;;;;;;;4.30;3.80;;;33.30;40.30;;;;;;5073360;28;20464;-75
2021/08/11 10:49:01;;;;;;;5.67;4.00;;;33.40;40.20;;;;;;5073231;28;20440;-75
2021/08/11 10:51:40;;;;;;;4.33;3.93;;;33.50;39.50;;;;;;5073142;28;20489;-75
2021/08/11 10:54:08;;;;;;;3.97;3.60;;;33.40;40.50;;;;;;5072814;28;20957;-75
2021/08/11 10:56:45;;;;;;;6.03;3.30;;;33.30;41.10;;;;;;5073189;28;20502;-75
2021/08/11 10:59:44;;;;;;;4.30;3.90;;;33.20;40.60;;;;;;5073165;28;20443;-75
2021/08/11 11:02:46;;;;;;;4.40;4.00;;;33.20;40.20;;;;;;5072872;28;20472;-75
2021/08/11 11:06:02;;;;;;;5.27;3.80;;;33.20;40.50;;;;;;5073063;28;20424;-75
2021/08/11 11:08:38;;;;;;;4.40;4.10;;;33.20;39.30;;;;;;5073089;28;20420;-75
2021/08/11 11:11:45;;;;;;;4.63;4.23;;;33.10;40.30;;;;;;5072952;28;20464;-75
2021/08/11 11:14:52;;;;;;;4.03;3.73;;;32.70;40.70;;;;;;5072503;28;20455;-75
2021/08/11 11:17:20;;;;;;;5.30;3.73;;;32.50;42.30;;;;;;5076736;28;20467;-73
2021/08/11 11:20:29;;;;;;;4.37;3.97;;;32.30;41.10;;;;;;5076639;28;20455;-73
2021/08/11 11:23:04;;;;;;;5.23;3.93;;;32.50;40.10;;;;;;5076298;28;20555;-75
2021/08/11 11:26:01;;;;;;;4.37;3.70;;;32.60;40.70;;;;;;5076429;28;20464;-74
2021/08/11 11:28:54;;;;;;;4.60;3.80;;;32.70;40.80;;;;;;5076446;28;20432;-75
2021/08/11 11:31:38;;;;;;;3.40;3.20;;;33.00;40.10;;;;;;5076278;28;20432;-75
2021/08/11 11:34:28;;;;;;;5.80;3.17;;;33.60;41.20;;;;;;5076433;28;20439;-75
2021/08/11 11:37:27;;;;;;;5.53;3.23;;;34.50;39.00;;;;;;5076013;28;21028;-75
2021/08/11 11:40:14;;;;;;;3.60;3.30;;;35.00;38.60;;;;;;5076399;28;20538;-75
2021/08/11 11:42:43;;;;;;;4.47;4.07;;;35.70;35.30;;;;;;5076368;28;20424;-75
2021/08/11 11:45:13;;;;;;;3.70;3.40;;;36.40;34.90;;;;;;5076109;28;20448;-75
2021/08/11 11:48:02;;;;;;;4.63;3.60;;;37.00;32.20;;;;;;5076728;28;20443;-74
2021/08/11 11:50:32;;;;;;;4.43;3.87;;;37.40;31.00;;;;;;5076681;28;20187;-74
2021/08/11 11:53:03;;;;;;;3.97;3.50;;;37.30;31.90;;;;;;5076687;28;20217;-74
2021/08/11 11:55:31;;;;;;;4.00;3.70;;;37.10;32.40;;;;;;5076049;28;20225;-75
2021/08/11 11:58:02;;;;;;;4.13;3.83;;;36.90;32.80;;;;;;5075934;28;20213;-75
2021/08/11 12:00:29;;;;;;;4.23;3.83;;;36.40;33.10;;;;;;5076033;28;20438;-75
2021/08/11 12:02:57;;;;;;;4.67;4.10;;;35.70;33.90;;;;;;5075923;28;20502;-75
2021/08/11 12:05:25;;;;;;;4.67;4.27;;;35.00;34.20;;;;;;5075724;28;20455;-75
2021/08/11 12:07:52;;;;;;;3.87;3.57;;;34.50;36.30;;;;;;5075820;28;20447;-75
2021/08/11 12:10:23;;;;;;;4.00;3.70;;;34.40;37.20;;;;;;5075460;28;20942;-75
2021/08/11 12:13:04;;;;;;;4.23;3.77;;;34.70;37.10;;;;;;5075375;28;20885;-74
2021/08/11 12:15:32;;;;;;;4.40;3.40;;;35.40;34.30;;;;;;5075737;28;20472;-75
2021/08/11 12:18:00;;;;;;;4.50;4.10;;;35.80;34.50;;;;;;5075681;28;20448;-74
2021/08/11 12:20:29;;;;;;;3.90;3.60;;;36.40;32.90;;;;;;5075751;28;20448;-74
2021/08/11 12:22:56;;;;;;;3.83;3.53;;;36.70;31.50;;;;;;5075446;28;20463;-74
2021/08/11 12:25:24;;;;;;;4.50;4.10;;;36.60;32.50;;;;;;5075166;28;20440;-75
2021/08/11 12:28:09;;;;;;;4.60;4.20;;;37.10;33.00;;;;;;5075129;28;20676;-75
2021/08/11 12:30:36;;;;;;;6.33;4.40;;;37.40;31.50;;;;;;5075355;28;20198;-74
2021/08/11 12:33:03;;;;;;;3.80;3.50;;;37.20;31.90;;;;;;5075271;28;20226;-73
2021/08/11 12:35:31;;;;;;;4.70;4.30;;;36.70;32.20;;;;;;5075211;28;20224;-75
2021/08/11 12:37:58;;;;;;;4.60;4.20;;;36.10;33.00;;;;;;5075334;28;20455;-74
2021/08/11 12:40:29;;;;;;;3.80;3.50;;;35.90;33.00;;;;;;5075320;28;20447;-75
2021/08/11 12:42:57;;;;;;;4.53;4.13;;;36.10;32.50;;;;;;5075139;28;20436;-75
2021/08/11 12:45:26;;;;;;;4.00;3.60;;;36.00;33.20;;;;;;5074975;28;20452;-75
2021/08/11 12:47:53;;;;;;;4.03;3.63;;;36.30;33.50;;;;;;5074936;28;20448;-75
2021/08/11 12:50:21;;;;;;;5.17;4.53;;;37.10;33.80;;;;;;5074888;28;20474;-75
2021/08/11 12:52:55;;;;;;;7.57;4.53;;;37.70;31.20;;;;;;5074897;28;20222;-74
2021/08/11 12:55:33;;;;;;;7.70;4.50;;;37.80;30.50;;;;;;5074788;28;20202;-74
2021/08/11 12:58:00;;;;;;;8.50;4.17;;;38.00;30.30;;;;;;5074877;28;20251;-74